Time;durP1;ratioP1;P1;durP2;ratioP2;P2;SDS_P1;SDS_P2;PMS_P1;PMS_P2;Temp;Humidity;BMP_temperature;BMP_pressure;BME280_temperature;BME280_humidity;BME280_pressure;Samples;Min_cycle;Max_cycle;Signal;HPM_P1;HPM_P2
2022/07/27 00:01:02;;;;;;;8.11;7.11;;;;;;;20.04;69.75;100126.18;464988;113;922858;-78
2022/07/27 00:02:05;;;;;;;9.53;7.75;;;;;;;20.01;69.75;100130.36;463887;111;922569;-78
2022/07/27 00:03:09;;;;;;;8.79;7.94;;;;;;;19.99;69.78;100133.41;464318;111;930985;-78
2022/07/27 00:04:11;;;;;;;13.71;8.38;;;;;;;19.97;69.84;100132.03;465979;111;922510;-79
2022/07/27 00:05:15;;;;;;;9.91;8.46;;;;;;;19.95;69.87;100134.28;464397;113;922656;-79
2022/07/27 00:06:20;;;;;;;10.58;7.31;;;;;;;19.93;69.92;100133.73;464433;112;923065;-78
2022/07/27 00:07:23;;;;;;;8.69;6.76;;;;;;;19.91;70.06;100136.77;457349;113;930649;-79
2022/07/27 00:08:26;;;;;;;8.98;6.77;;;;;;;19.92;70.29;100135.66;457921;115;922992;-78
2022/07/27 00:09:29;;;;;;;8.76;6.78;;;;;;;19.94;70.43;100149.22;456199;114;922915;-78
2022/07/27 00:10:33;;;;;;;7.64;6.94;;;;;;;19.95;70.48;100146.18;448861;116;922800;-78
2022/07/27 00:11:36;;;;;;;8.98;6.61;;;;;;;19.98;70.45;100142.82;450817;115;930489;-78
2022/07/27 00:12:39;;;;;;;11.56;6.87;;;;;;;20.01;70.48;100149.73;447743;116;922902;-78
2022/07/27 00:13:44;;;;;;;7.34;6.68;;;;;;;20.02;70.42;100143.06;451073;116;922875;-78
2022/07/27 00:14:47;;;;;;;11.44;6.81;;;;;;;20.04;70.34;100145.55;454381;113;922537;-78
2022/07/27 00:15:50;;;;;;;7.66;6.29;;;;;;;20.03;70.16;100141.95;462829;112;922568;-78
2022/07/27 00:16:53;;;;;;;6.40;5.76;;;;;;;20.03;70.07;100136.42;464091;112;923089;-78
2022/07/27 00:17:59;;;;;;;7.44;5.67;;;;;;;20.01;69.99;100149.73;462022;113;922579;-78
2022/07/27 00:19:02;;;;;;;6.24;5.64;;;;;;;19.98;69.94;100140.05;461821;113;923037;-78
2022/07/27 00:20:05;;;;;;;6.35;5.70;;;;;;;19.97;69.96;100151.41;461985;113;922566;-78
2022/07/27 00:21:09;;;;;;;7.08;6.09;;;;;;;19.95;70.02;100145.34;462010;112;922590;-78
2022/07/27 00:22:12;;;;;;;6.12;5.54;;;;;;;19.94;70.13;100160.30;461665;112;922838;-78
2022/07/27 00:23:15;;;;;;;7.24;5.33;;;;;;;19.94;70.16;100161.12;461336;112;922654;-78
2022/07/27 00:24:18;;;;;;;6.10;5.47;;;;;;;19.94;70.17;100157.52;462671;112;923016;-78
2022/07/27 00:25:22;;;;;;;6.19;4.85;;;;;;;19.93;70.14;100158.63;462055;113;922504;-78
2022/07/27 00:26:26;;;;;;;6.11;5.19;;;;;;;19.92;70.12;100155.03;462603;112;922527;-79
2022/07/27 00:27:29;;;;;;;7.83;6.05;;;;;;;19.91;70.24;100164.45;462081;112;922414;-78
2022/07/27 00:28:32;;;;;;;4.98;4.60;;;;;;;19.90;70.17;100154.48;465474;112;922954;-78
2022/07/27 00:29:35;;;;;;;5.78;5.16;;;;;;;19.89;70.23;100155.63;461070;112;923027;-78
2022/07/27 00:30:38;;;;;;;8.45;5.15;;;;;;;19.88;70.30;100156.73;452949;115;922584;-78
2022/07/27 00:31:41;;;;;;;6.97;5.19;;;;;;;19.88;70.44;100155.90;460949;113;923687;-78
2022/07/27 00:32:45;;;;;;;5.70;5.19;;;;;;;19.89;70.64;100157.56;456013;114;922778;-78
2022/07/27 00:33:48;;;;;;;8.03;5.46;;;;;;;19.90;70.77;100159.22;456816;115;922603;-78
2022/07/27 00:34:51;;;;;;;6.26;5.23;;;;;;;19.93;70.81;100155.87;462882;113;922509;-78
2022/07/27 00:35:54;;;;;;;4.81;4.41;;;;;;;19.96;70.84;100163.58;461739;113;922997;-78
2022/07/27 00:36:58;;;;;;;4.83;4.31;;;;;;;19.98;70.78;100162.19;465348;112;922534;-78
2022/07/27 00:38:01;;;;;;;5.41;4.66;;;;;;;20.00;70.73;100153.61;462749;113;923198;-78
2022/07/27 00:39:04;;;;;;;5.33;4.85;;;;;;;20.03;70.71;100154.96;462906;113;922496;-78
2022/07/27 00:40:09;;;;;;;5.14;4.51;;;;;;;20.03;70.69;100160.50;466797;111;922560;-78
2022/07/27 00:41:12;;;;;;;4.66;4.26;;;;;;;20.04;70.57;100149.14;463755;113;922543;-78
2022/07/27 00:42:15;;;;;;;4.50;4.11;;;;;;;20.05;70.59;100153.58;463440;112;923516;-78
2022/07/27 00:43:18;;;;;;;5.40;4.86;;;;;;;20.07;70.58;100156.06;463683;113;922986;-78
2022/07/27 00:44:28;;;;;;;5.34;4.37;;;;;;;20.08;70.65;100160.45;461587;113;923048;-78
2022/07/27 00:45:31;;;;;;;6.93;4.54;;;;;;;20.11;70.61;100162.67;463039;113;922576;-78
2022/07/27 00:46:36;;;;;;;5.57;4.35;;;;;;;20.12;70.47;100161.56;463477;112;930494;-78
2022/07/27 00:47:39;;;;;;;7.39;4.62;;;;;;;20.14;70.44;100164.84;462734;112;922527;-78
2022/07/27 00:48:42;;;;;;;4.89;4.37;;;;;;;20.15;70.35;100160.97;461675;112;923178;-78
2022/07/27 00:49:45;;;;;;;5.26;4.76;;;;;;;20.15;70.34;100161.80;468078;112;922729;-78
2022/07/27 00:50:48;;;;;;;5.26;4.75;;;;;;;20.16;70.39;100168.99;468915;110;922604;-78
2022/07/27 00:51:52;;;;;;;4.82;4.39;;;;;;;20.17;70.26;100162.35;469327;111;922563;-78
2022/07/27 00:52:55;;;;;;;4.58;3.92;;;;;;;20.17;70.22;100165.12;465575;112;922806;-78
2022/07/27 00:53:58;;;;;;;4.88;4.47;;;;;;;20.18;70.24;100166.74;469097;112;923333;-78
2022/07/27 00:55:02;;;;;;;4.00;3.38;;;;;;;20.19;70.20;100154.56;459246;113;922641;-79
2022/07/27 00:56:05;;;;;;;4.71;3.87;;;;;;;20.21;70.11;100165.36;457951;111;922574;-78
2022/07/27 00:57:13;;;;;;;4.58;4.14;;;;;;;20.21;70.04;100152.34;468762;112;922667;-78
2022/07/27 00:58:16;;;;;;;5.12;4.21;;;;;;;20.21;69.97;100157.88;465773;111;930663;-78
2022/07/27 00:59:20;;;;;;;4.51;3.96;;;;;;;20.20;69.74;100156.22;461293;113;922487;-78
2022/07/27 01:00:23;;;;;;;5.37;3.75;;;;;;;20.20;69.70;100156.22;453699;114;923324;-78
2022/07/27 01:01:28;;;;;;;6.57;4.63;;;;;;;20.20;69.65;100163.70;458420;114;922662;-78
2022/07/27 01:02:31;;;;;;;5.90;3.84;;;;;;;20.19;69.68;100162.87;453120;115;922544;-78
2022/07/27 01:03:35;;;;;;;4.76;4.24;;;;;;;20.19;69.69;100154.56;463603;112;923038;-78
2022/07/27 01:04:39;;;;;;;6.27;4.28;;;;;;;20.20;69.73;100161.76;462770;112;922588;-78
2022/07/27 01:05:43;;;;;;;9.86;5.51;;;;;;;20.19;69.77;100157.33;461652;113;922565;-78
2022/07/27 01:06:47;;;;;;;6.26;4.76;;;;;;;20.21;69.72;100160.65;462996;111;922672;-78
2022/07/27 01:07:50;;;;;;;5.87;4.50;;;;;;;20.22;69.67;100158.71;455200;115;930771;-78
2022/07/27 01:10:17;;;;;;;5.53;4.87;;;;;;;20.21;69.57;100160.65;442124;117;922967;-78
2022/07/27 01:11:20;;;;;;;4.83;4.30;;;;;;;20.21;69.58;100170.89;446121;116;923052;-78
2022/07/27 01:12:29;;;;;;;7.82;4.75;;;;;;;20.21;69.67;100168.95;457494;114;930595;-78
2022/07/27 01:13:32;;;;;;;6.26;4.41;;;;;;;20.21;69.51;100168.95;455059;114;922597;-78
2022/07/27 01:14:37;;;;;;;4.96;4.49;;;;;;;20.21;69.49;100173.66;452626;114;922579;-78
2022/07/27 01:15:42;;;;;;;5.52;4.09;;;;;;;20.20;69.42;100166.47;456617;114;922461;-78
2022/07/27 01:16:45;;;;;;;4.74;4.31;;;;;;;20.20;69.35;100158.16;459684;114;923098;-78
2022/07/27 01:17:49;;;;;;;5.92;5.10;;;;;;;20.19;69.31;100165.64;447123;118;922619;-78
2022/07/27 01:18:52;;;;;;;4.97;4.11;;;;;;;20.19;69.21;100168.41;451243;116;923073;-78
2022/07/27 01:19:57;;;;;;;5.53;4.67;;;;;;;20.18;69.03;100160.41;444766;117;922936;-78
2022/07/27 01:21:03;;;;;;;6.27;4.43;;;;;;;20.17;68.90;100153.22;446549;117;923064;-78
2022/07/27 01:22:06;;;;;;;4.93;4.52;;;;;;;20.14;68.91;100171.21;451821;116;922643;-78
2022/07/27 01:23:10;;;;;;;7.25;5.11;;;;;;;20.13;68.93;100166.78;446566;117;923345;-79
2022/07/27 01:24:13;;;;;;;4.52;4.00;;;;;;;20.12;69.02;100167.92;448169;117;922605;-78
2022/07/27 01:25:16;;;;;;;8.33;4.37;;;;;;;20.12;69.14;100175.40;448536;117;923069;-78
2022/07/27 01:26:21;;;;;;;4.08;3.64;;;;;;;20.13;69.07;100171.49;458854;113;923002;-79
2022/07/27 01:27:24;;;;;;;4.66;3.92;;;;;;;20.13;69.12;100165.95;458679;113;922582;-78
2022/07/27 01:28:28;;;;;;;3.53;3.22;;;;;;;20.12;69.16;100167.92;460472;113;923080;-78
2022/07/27 01:29:32;;;;;;;4.76;3.99;;;;;;;20.12;69.16;100167.92;459826;114;930703;-78
2022/07/27 01:30:37;;;;;;;4.53;3.57;;;;;;;20.12;69.09;100167.92;457927;113;924015;-78
2022/07/27 01:31:40;;;;;;;3.53;3.07;;;;;;;20.11;69.09;100169.03;464599;112;923578;-78
2022/07/27 01:32:43;;;;;;;3.86;2.36;;;;;;;20.11;68.96;100160.73;463504;112;923241;-78
2022/07/27 01:33:46;;;;;;;2.81;2.22;;;;;;;20.10;68.92;100164.61;467753;112;923061;-78
2022/07/27 01:34:49;;;;;;;3.18;2.79;;;;;;;20.10;68.87;100164.61;455935;114;922932;-78
2022/07/27 01:35:54;;;;;;;4.16;2.48;;;;;;;20.10;68.84;100167.38;458431;114;922835;-78
2022/07/27 01:36:57;;;;;;;2.41;2.16;;;;;;;20.10;68.77;100164.61;452928;115;922694;-78
2022/07/27 01:38:00;;;;;;;2.91;2.38;;;;;;;20.09;68.66;100162.95;454528;114;922565;-78
2022/07/27 01:39:04;;;;;;;3.40;2.67;;;;;;;20.10;68.62;100169.31;441599;117;923015;-78
2022/07/27 01:40:08;;;;;;;2.63;2.44;;;;;;;20.10;68.54;100163.78;455304;115;922931;-79
2022/07/27 01:41:12;;;;;;;2.87;2.33;;;;;;;20.09;68.59;100167.66;456175;114;923395;-78
2022/07/27 01:42:15;;;;;;;4.87;2.56;;;;;;;20.09;68.49;100171.25;454987;115;930199;-78
2022/07/27 01:43:18;;;;;;;2.52;2.34;;;;;;;20.09;68.41;100168.48;456618;114;923016;-78
2022/07/27 01:44:21;;;;;;;2.84;2.49;;;;;;;20.09;68.44;100168.48;442151;119;922602;-78
2022/07/27 01:45:24;;;;;;;2.55;2.35;;;;;;;20.09;68.35;100160.18;457064;114;923105;-78
2022/07/27 01:46:28;;;;;;;2.66;2.46;;;;;;;20.09;68.30;100162.12;455291;115;923093;-78
2022/07/27 01:47:31;;;;;;;2.97;2.75;;;;;;;20.09;68.22;100165.72;454612;114;923003;-78
2022/07/27 01:48:34;;;;;;;3.54;3.24;;;;;;;20.08;68.09;100166.00;432265;120;923309;-78
2022/07/27 01:49:38;;;;;;;3.27;2.56;;;;;;;20.07;68.12;100162.40;438543;116;923278;-78
2022/07/27 01:50:41;;;;;;;3.87;2.52;;;;;;;20.06;68.16;100162.70;443477;118;922909;-78
2022/07/27 01:51:46;;;;;;;2.76;2.56;;;;;;;20.05;68.17;100167.41;440399;118;922656;-78
2022/07/27 01:52:49;;;;;;;3.35;2.83;;;;;;;20.07;68.19;100169.91;455884;114;923944;-78
2022/07/27 01:53:52;;;;;;;2.86;2.62;;;;;;;20.07;68.24;100164.37;456041;114;923171;-78
2022/07/27 01:54:55;;;;;;;3.44;3.13;;;;;;;20.08;68.25;100166.00;454547;115;922542;-78
2022/07/27 01:55:58;;;;;;;2.99;2.73;;;;;;;20.08;68.22;100161.29;457001;115;922562;-78
2022/07/27 01:57:01;;;;;;;3.42;3.12;;;;;;;20.09;68.16;100165.72;456436;114;922965;-78
2022/07/27 01:58:06;;;;;;;3.10;2.86;;;;;;;20.09;67.99;100165.72;456335;115;922638;-78
2022/07/27 01:59:09;;;;;;;4.64;3.17;;;;;;;20.07;67.78;100164.37;456763;114;922708;-78
2022/07/27 02:00:14;;;;;;;7.53;3.14;;;;;;;20.03;67.70;100164.09;456983;113;922634;-78
2022/07/27 02:01:17;;;;;;;3.18;2.96;;;;;;;20.01;67.65;100176.58;458786;114;922585;-78
2022/07/27 02:02:21;;;;;;;3.44;3.15;;;;;;;19.96;67.75;100178.25;454173;115;922704;-78
2022/07/27 02:03:24;;;;;;;3.46;3.01;;;;;;;19.96;67.96;100185.72;456660;113;923053;-78
2022/07/27 02:04:27;;;;;;;3.33;2.94;;;;;;;19.95;68.08;100178.55;456905;112;922589;-79
2022/07/27 02:05:30;;;;;;;2.95;2.75;;;;;;;19.95;68.19;100187.69;459657;114;922489;-78
2022/07/27 02:06:33;;;;;;;4.76;3.37;;;;;;;19.96;68.32;100188.48;456715;114;922436;-78
2022/07/27 02:07:40;;;;;;;3.71;3.14;;;;;;;19.97;68.27;100181.84;458672;115;922594;-78
2022/07/27 02:08:43;;;;;;;3.51;3.04;;;;;;;19.99;68.26;100185.16;457242;115;922560;-78
2022/07/27 02:09:47;;;;;;;3.36;3.04;;;;;;;19.98;68.26;100184.33;455890;114;923446;-78
2022/07/27 02:13:33;;;;;;;3.58;3.13;;;;;;;20.02;68.13;100176.27;452963;115;922556;-77
2022/07/27 02:14:36;;;;;;;3.51;3.24;;;;;;;20.01;67.96;100177.41;452534;115;922629;-78
2022/07/27 02:15:39;;;;;;;3.55;3.24;;;;;;;20.01;67.93;100177.41;453977;115;923228;-78
2022/07/27 02:16:43;;;;;;;3.93;3.10;;;;;;;19.99;67.95;100185.99;453892;115;922625;-78
2022/07/27 02:17:47;;;;;;;3.24;2.84;;;;;;;19.97;68.08;100188.20;454079;115;922914;-78
2022/07/27 02:18:51;;;;;;;3.13;2.93;;;;;;;19.97;68.22;100187.38;454355;115;922628;-78
2022/07/27 02:19:54;;;;;;;6.22;4.17;;;;;;;19.98;68.29;100189.87;454127;115;922595;-79
2022/07/27 02:20:57;;;;;;;3.81;3.52;;;;;;;19.99;68.28;100193.47;455016;114;922618;-78
2022/07/27 02:22:00;;;;;;;4.42;4.03;;;;;;;19.98;68.09;100192.63;455598;114;922979;-78
2022/07/27 02:23:02;;;;;;;5.84;4.64;;;;;;;19.96;67.94;100197.62;454748;115;922499;-78
2022/07/27 02:24:06;;;;;;;7.62;6.07;;;;;;;19.95;67.93;100200.70;454850;115;922861;-78
2022/07/27 02:25:11;;;;;;;7.70;6.46;;;;;;;19.92;67.95;100207.61;455222;115;923035;-78
2022/07/27 02:26:14;;;;;;;10.44;6.74;;;;;;;19.90;67.94;100201.52;454915;115;924735;-78
2022/07/27 02:27:17;;;;;;;8.13;6.24;;;;;;;19.88;67.91;100206.53;460035;112;922608;-78
2022/07/27 02:28:21;;;;;;;8.54;7.26;;;;;;;19.88;67.89;100205.70;462707;111;922806;-78
2022/07/27 02:29:24;;;;;;;11.46;6.53;;;;;;;19.87;67.97;100206.81;462863;111;922890;-78
2022/07/27 02:30:27;;;;;;;9.65;6.02;;;;;;;19.85;67.98;100198.78;455220;114;923294;-78
2022/07/27 02:31:30;;;;;;;7.04;6.33;;;;;;;19.85;67.96;100203.49;455018;114;930556;-79
2022/07/27 02:32:35;;;;;;;7.49;6.61;;;;;;;19.83;67.99;100202.97;452625;114;922560;-78
2022/07/27 02:33:38;;;;;;;9.36;6.14;;;;;;;19.81;68.03;100203.25;454964;114;922583;-78
2022/07/27 02:34:42;;;;;;;8.60;5.74;;;;;;;19.81;67.99;100199.65;455593;114;922582;-77
2022/07/27 02:35:45;;;;;;;6.45;5.87;;;;;;;19.77;68.03;100202.17;455294;113;922568;-78
2022/07/27 02:36:48;;;;;;;6.25;5.61;;;;;;;19.75;68.10;100207.15;457386;114;922639;-78
2022/07/27 02:37:51;;;;;;;7.36;6.45;;;;;;;19.74;68.17;100204.66;456012;114;922541;-78
2022/07/27 02:38:54;;;;;;;6.91;6.28;;;;;;;19.71;68.25;100205.23;455446;114;922529;-78
2022/07/27 02:39:58;;;;;;;7.54;6.57;;;;;;;19.70;68.38;100204.41;451586;115;923189;-78
2022/07/27 02:41:01;;;;;;;12.84;7.38;;;;;;;19.70;68.47;100200.81;451664;114;930667;-79
2022/07/27 02:42:05;;;;;;;9.83;6.73;;;;;;;19.70;68.58;100203.58;456381;114;922547;-78
2022/07/27 02:43:08;;;;;;;8.40;7.52;;;;;;;19.71;68.64;100199.70;456314;115;930620;-78
2022/07/27 02:44:13;;;;;;;8.96;7.47;;;;;;;19.71;68.67;100194.17;455922;114;922635;-78
2022/07/27 02:45:16;;;;;;;8.66;7.58;;;;;;;19.70;68.87;100198.88;456993;114;922821;-78
2022/07/27 02:46:20;;;;;;;8.61;7.15;;;;;;;19.71;69.04;100206.06;457949;114;923212;-78
2022/07/27 02:47:23;;;;;;;6.66;6.06;;;;;;;19.74;69.06;100197.19;455738;113;922581;-78
2022/07/27 02:48:26;;;;;;;8.58;7.39;;;;;;;19.77;69.19;100206.87;455763;114;922541;-78
2022/07/27 02:49:29;;;;;;;6.83;5.76;;;;;;;19.78;69.29;100198.30;457312;115;923073;-79
2022/07/27 02:50:32;;;;;;;6.87;6.16;;;;;;;19.81;69.41;100203.25;459688;114;922709;-78
2022/07/27 02:51:35;;;;;;;7.38;6.36;;;;;;;19.85;69.46;100200.73;457164;114;922512;-78
2022/07/27 02:52:40;;;;;;;7.27;6.50;;;;;;;19.89;69.53;100205.43;456919;114;923133;-78
2022/07/27 02:53:43;;;;;;;7.02;6.00;;;;;;;19.93;69.57;100202.91;457377;114;922466;-78
2022/07/27 02:54:46;;;;;;;5.66;5.16;;;;;;;19.97;69.54;100203.98;457106;114;923015;-78
2022/07/27 02:55:49;;;;;;;5.46;4.96;;;;;;;20.02;69.51;100208.66;457091;114;922996;-76
2022/07/27 02:56:54;;;;;;;5.26;4.81;;;;;;;20.06;69.48;100206.99;455740;114;922489;-76
2022/07/27 02:57:57;;;;;;;5.36;4.73;;;;;;;20.10;69.44;100208.06;454909;115;922494;-78
2022/07/27 02:59:00;;;;;;;5.64;5.12;;;;;;;20.14;69.33;100209.14;454989;115;930605;-80
2022/07/27 03:00:05;;;;;;;5.91;5.24;;;;;;;20.17;69.15;100214.95;457096;115;922605;-78
2022/07/27 03:01:08;;;;;;;5.02;4.62;;;;;;;20.21;69.03;100212.42;456324;115;922658;-78
2022/07/27 03:02:11;;;;;;;5.47;4.61;;;;;;;20.22;68.91;100212.14;456851;116;923173;-78
2022/07/27 03:03:14;;;;;;;4.90;4.50;;;;;;;20.25;68.86;100214.32;459365;114;922658;-78
2022/07/27 03:04:18;;;;;;;4.60;4.23;;;;;;;20.27;68.73;100214.88;456747;114;922523;-78
2022/07/27 03:05:21;;;;;;;4.66;4.14;;;;;;;20.29;68.64;100212.63;459883;113;922549;-78
2022/07/27 03:06:24;;;;;;;3.77;3.44;;;;;;;20.31;68.53;100213.20;459083;114;922516;-78
2022/07/27 03:07:28;;;;;;;3.94;2.86;;;;;;;20.33;68.51;100218.46;455949;113;930673;-79
2022/07/27 03:08:31;;;;;;;3.75;3.42;;;;;;;20.36;68.42;100227.01;458815;114;923075;-78
2022/07/27 03:09:34;;;;;;;3.71;3.41;;;;;;;20.37;68.43;100227.84;449692;115;930570;-79
2022/07/27 03:10:37;;;;;;;3.24;2.81;;;;;;;20.41;68.39;100223.37;456175;115;922609;-78
2022/07/27 03:11:40;;;;;;;4.81;4.09;;;;;;;20.44;68.31;100221.98;451881;115;922733;-78
2022/07/27 03:12:44;;;;;;;5.06;3.41;;;;;;;20.47;68.19;100224.16;453908;115;922715;-78
2022/07/27 03:13:47;;;;;;;4.08;3.30;;;;;;;20.49;68.16;100224.71;452071;115;923014;-78
2022/07/27 03:14:50;;;;;;;4.01;3.30;;;;;;;20.50;68.05;100218.89;454805;115;922920;-78
2022/07/27 03:15:53;;;;;;;5.36;3.21;;;;;;;20.53;67.88;100217.47;456267;114;922756;-78
2022/07/27 03:16:56;;;;;;;3.50;3.20;;;;;;;20.52;67.71;100219.41;459589;114;922843;-78
2022/07/27 03:18:00;;;;;;;3.59;3.29;;;;;;;20.53;67.73;100211.92;460263;113;924042;-78
2022/07/27 03:19:04;;;;;;;3.08;2.78;;;;;;;20.54;67.83;100219.13;446246;117;923516;-78
2022/07/27 03:20:08;;;;;;;3.76;3.39;;;;;;;20.55;67.81;100220.78;449361;117;923024;-78
2022/07/27 03:21:13;;;;;;;3.46;2.98;;;;;;;20.55;67.70;100221.62;443143;118;922636;-78
2022/07/27 03:22:16;;;;;;;3.29;3.02;;;;;;;20.57;67.60;100226.84;443636;118;922935;-78
2022/07/27 03:23:19;;;;;;;3.37;3.04;;;;;;;20.57;67.53;100224.08;445614;117;922488;-78
2022/07/27 03:24:22;;;;;;;3.59;3.29;;;;;;;20.58;67.57;100228.50;444718;117;922481;-78
2022/07/27 03:25:25;;;;;;;3.83;3.37;;;;;;;20.58;67.53;100225.73;447960;116;922955;-78
2022/07/27 03:26:29;;;;;;;3.49;2.84;;;;;;;20.58;67.50;100223.80;446076;117;922640;-78
2022/07/27 03:27:32;;;;;;;3.41;3.11;;;;;;;20.58;67.43;100222.97;450368;115;922603;-78
2022/07/27 03:28:35;;;;;;;3.53;3.25;;;;;;;20.56;67.30;100223.27;453757;115;930568;-78
2022/07/27 03:29:38;;;;;;;3.85;3.55;;;;;;;20.55;67.31;100240.17;451482;116;923092;-78
2022/07/27 03:30:41;;;;;;;4.11;3.34;;;;;;;20.54;67.47;100236.58;447590;117;922573;-78
2022/07/27 03:31:44;;;;;;;3.82;3.27;;;;;;;20.54;67.59;100232.97;456594;115;923091;-78
2022/07/27 03:32:49;;;;;;;3.95;3.63;;;;;;;20.55;67.65;100240.17;454548;115;922886;-78
2022/07/27 03:33:52;;;;;;;3.79;3.45;;;;;;;20.57;67.64;100241.52;454660;115;930500;-78
2022/07/27 03:34:55;;;;;;;4.34;3.97;;;;;;;20.57;67.61;100241.52;453793;115;922556;-78
2022/07/27 03:35:58;;;;;;;4.41;3.99;;;;;;;20.59;67.66;100238.47;453580;114;922568;-78
2022/07/27 03:37:01;;;;;;;4.42;3.81;;;;;;;20.60;67.69;100242.91;453888;115;922551;-78
2022/07/27 03:38:04;;;;;;;6.00;4.51;;;;;;;20.61;67.74;100237.08;448272;116;922478;-78
2022/07/27 03:39:07;;;;;;;3.61;3.37;;;;;;;20.63;67.64;100243.14;454099;115;922490;-78
2022/07/27 03:40:11;;;;;;;5.09;4.19;;;;;;;20.63;67.68;100245.08;456100;114;922930;-78
2022/07/27 03:41:15;;;;;;;7.39;4.30;;;;;;;20.64;67.74;100241.20;454871;115;922951;-78
2022/07/27 03:42:18;;;;;;;4.46;3.83;;;;;;;20.65;67.88;100246.46;452982;114;922518;-78
2022/07/27 03:43:21;;;;;;;4.17;3.86;;;;;;;20.67;67.88;100252.55;453399;116;922965;-78
2022/07/27 03:44:24;;;;;;;4.79;4.39;;;;;;;20.68;67.88;100253.34;455608;114;922600;-78
2022/07/27 03:45:27;;;;;;;4.33;3.95;;;;;;;20.71;67.86;100258.33;455569;114;922985;-78
2022/07/27 03:46:31;;;;;;;4.25;3.93;;;;;;;20.73;67.97;100258.88;458849;114;922365;-78
2022/07/27 03:47:34;;;;;;;4.71;4.33;;;;;;;20.74;67.96;100254.96;455410;115;922597;-78
2022/07/27 03:48:39;;;;;;;5.25;4.13;;;;;;;20.76;67.86;100253.57;456654;115;922830;-78
2022/07/27 03:49:42;;;;;;;6.14;4.73;;;;;;;20.78;67.74;100259.62;453528;114;923191;-77
2022/07/27 03:50:45;;;;;;;5.04;4.46;;;;;;;20.78;67.63;100258.83;452699;115;930562;-78
2022/07/27 03:51:48;;;;;;;4.73;4.33;;;;;;;20.79;67.52;100260.46;438258;119;922593;-78
2022/07/27 03:52:51;;;;;;;4.99;4.46;;;;;;;20.78;67.46;100259.62;446602;117;922566;-78
2022/07/27 03:53:54;;;;;;;4.71;4.31;;;;;;;20.78;67.41;100258.83;445458;116;922627;-78
2022/07/27 03:54:57;;;;;;;5.34;4.92;;;;;;;20.77;67.31;100258.00;456541;114;922646;-77
2022/07/27 03:56:00;;;;;;;4.92;4.47;;;;;;;20.75;67.21;100256.63;456407;115;922597;-77
2022/07/27 03:57:03;;;;;;;5.54;4.31;;;;;;;20.72;67.29;100258.05;455667;114;922549;-79
2022/07/27 03:58:06;;;;;;;4.71;4.31;;;;;;;20.70;67.37;100254.73;456423;114;923060;-77
2022/07/27 03:59:09;;;;;;;5.23;4.62;;;;;;;20.70;67.61;100256.67;456403;113;923195;-78
2022/07/27 04:00:15;;;;;;;5.33;3.73;;;;;;;20.70;67.81;100263.04;456707;114;923265;-78
2022/07/27 04:01:18;;;;;;;4.88;4.46;;;;;;;20.74;67.92;100257.73;456050;114;922802;-78
2022/07/27 04:02:21;;;;;;;4.71;4.16;;;;;;;20.75;68.00;100262.99;455807;114;930943;-78
2022/07/27 04:03:25;;;;;;;4.43;4.07;;;;;;;20.79;67.96;100264.06;461060;114;922595;-77
2022/07/27 04:04:28;;;;;;;6.34;4.01;;;;;;;20.81;67.92;100264.61;458349;113;922675;-77
2022/07/27 04:05:31;;;;;;;6.54;4.50;;;;;;;20.84;67.72;100267.93;461814;113;922915;-78
2022/07/27 04:06:34;;;;;;;4.61;4.22;;;;;;;20.83;67.57;100266.27;458007;112;923054;-77
2022/07/27 04:07:37;;;;;;;4.21;3.80;;;;;;;20.81;67.52;100258.23;446640;116;922889;-77
2022/07/27 04:08:40;;;;;;;4.37;3.85;;;;;;;20.80;67.54;100262.12;446988;116;922844;-77
2022/07/27 04:09:43;;;;;;;4.00;3.70;;;;;;;20.79;67.60;100263.23;449148;114;922628;-76
2022/07/27 04:10:48;;;;;;;3.75;3.25;;;;;;;20.79;67.85;100261.29;446304;116;922652;-77
2022/07/27 04:11:51;;;;;;;3.36;3.14;;;;;;;20.82;68.03;100265.44;449645;115;922571;-77
2022/07/27 04:12:56;;;;;;;3.99;3.69;;;;;;;20.87;68.25;100270.11;453144;114;922782;-77
2022/07/27 04:14:01;;;;;;;3.91;3.26;;;;;;;20.89;68.25;100271.48;452320;114;922564;-77
2022/07/27 04:15:06;;;;;;;3.74;3.44;;;;;;;20.93;68.33;100258.69;458063;113;922566;-77
2022/07/27 04:16:10;;;;;;;3.47;3.27;;;;;;;20.98;68.31;100261.41;463109;112;922561;-76
2022/07/27 04:17:12;;;;;;;3.27;2.95;;;;;;;21.02;68.14;100270.79;463803;112;922981;-77
2022/07/27 04:18:17;;;;;;;3.66;3.33;;;;;;;21.03;68.00;100269.67;460291;112;922643;-77
2022/07/27 04:19:21;;;;;;;3.50;3.20;;;;;;;21.05;67.81;100263.85;466912;112;922694;-77
2022/07/27 04:20:25;;;;;;;3.14;2.85;;;;;;;21.04;67.66;100268.56;471162;111;922579;-77
2022/07/27 04:21:28;;;;;;;5.17;3.34;;;;;;;21.02;67.58;100269.96;467325;112;930549;-77
2022/07/27 04:22:33;;;;;;;3.43;3.23;;;;;;;21.00;67.59;100269.45;465230;112;922810;-76
2022/07/27 04:23:36;;;;;;;3.84;3.52;;;;;;;20.99;67.51;100270.56;464862;110;922756;-77
2022/07/27 04:24:41;;;;;;;3.31;3.04;;;;;;;20.97;67.56;100268.07;461847;112;922490;-77
2022/07/27 04:25:44;;;;;;;3.43;3.08;;;;;;;20.97;67.65;100268.07;450018;115;922804;-77
2022/07/27 04:26:47;;;;;;;3.31;3.01;;;;;;;20.96;67.67;100269.18;448176;116;923326;-77
2022/07/27 04:27:53;;;;;;;3.07;2.80;;;;;;;;;;455929;115;923156;-78
2022/07/27 04:28:55;;;;;;;2.69;2.49;;;;;;;20.94;67.88;100271.44;456325;114;923024;-78
2022/07/27 04:29:58;;;;;;;4.86;3.31;;;;;;;20.93;67.89;100269.78;452636;114;930402;-78
2022/07/27 04:31:01;;;;;;;3.68;3.44;;;;;;;20.92;67.99;100264.52;457636;114;922990;-77
2022/07/27 04:32:05;;;;;;;3.53;3.26;;;;;;;20.90;68.00;100266.73;453950;114;923286;-78
2022/07/27 04:33:08;;;;;;;3.82;3.51;;;;;;;20.88;68.09;100263.45;440087;118;923170;-78
2022/07/27 04:34:11;;;;;;;3.50;3.24;;;;;;;20.85;68.04;100264.84;443027;118;922674;-78
2022/07/27 04:35:14;;;;;;;3.69;3.40;;;;;;;20.84;68.17;100268.73;456022;114;922885;-78
2022/07/27 04:36:18;;;;;;;3.42;3.11;;;;;;;20.84;68.28;100267.93;451476;115;923128;-77
2022/07/27 04:37:21;;;;;;;3.14;2.94;;;;;;;20.83;68.32;100269.88;442868;119;923041;-78
2022/07/27 04:38:24;;;;;;;4.28;3.98;;;;;;;20.83;68.48;100275.41;453910;114;923169;-77
2022/07/27 04:39:27;;;;;;;4.43;4.04;;;;;;;20.82;68.57;100279.30;454488;114;922709;-77
2022/07/27 04:40:32;;;;;;;3.66;3.38;;;;;;;20.83;68.67;100274.58;453271;115;922720;-77
2022/07/27 04:41:35;;;;;;;4.61;3.76;;;;;;;20.81;68.72;100272.92;453642;114;922613;-77
2022/07/27 04:42:38;;;;;;;4.79;4.39;;;;;;;20.81;68.77;100274.86;454926;114;922994;-77
2022/07/27 04:43:43;;;;;;;4.43;4.06;;;;;;;20.81;68.97;100275.69;454636;114;922731;-77
2022/07/27 04:44:46;;;;;;;4.70;4.04;;;;;;;20.83;69.18;100269.04;453016;115;922610;-77
2022/07/27 04:45:49;;;;;;;4.67;4.36;;;;;;;20.85;69.23;100272.33;454143;114;922578;-78
2022/07/27 04:46:52;;;;;;;5.46;4.42;;;;;;;20.86;69.23;100268.45;454541;114;922619;-77
2022/07/27 04:47:55;;;;;;;4.66;4.36;;;;;;;20.88;69.34;100277.31;453837;114;923480;-77
2022/07/27 04:48:58;;;;;;;4.69;4.38;;;;;;;20.89;69.33;100265.94;447065;114;922773;-78
2022/07/27 04:50:02;;;;;;;4.68;4.34;;;;;;;20.90;69.35;100270.34;434004;119;923146;-76
2022/07/27 04:51:05;;;;;;;5.33;4.51;;;;;;;20.92;69.48;100268.12;437481;120;923209;-77
2022/07/27 04:52:09;;;;;;;3.89;3.49;;;;;;;20.94;69.51;100268.66;450927;115;930586;-77
2022/07/27 04:53:13;;;;;;;4.85;4.45;;;;;;;20.98;69.51;100277.22;457459;114;930605;-77
2022/07/27 04:54:16;;;;;;;4.12;3.82;;;;;;;20.97;69.51;100265.30;455629;114;922754;-77
2022/07/27 04:55:20;;;;;;;4.35;3.95;;;;;;;20.99;69.45;100267.78;456396;115;923127;-77
2022/07/27 04:56:23;;;;;;;4.93;4.33;;;;;;;20.99;69.45;100259.47;453744;115;923007;-78